LTBA - Información del aeropuerto


Mapa

Información de pistas
Pista 05 Longitud 8530 ft Anchura 197 ft
Elevación 93 ft Threshold 492 ft Heading 59
Pista 23 Longitud 8530 ft Anchura 197 ft
Elevación 90 ft Threshold 0 ft Heading 239
Pista 17L Longitud 9843 ft Anchura 148 ft
Elevación 157 ft Threshold 0 ft Heading 178
Pista 35R Longitud 9843 ft Anchura 148 ft
Elevación 100 ft Threshold 0 ft Heading 358
Pista 17R Longitud 9843 ft Anchura 148 ft
Elevación 163 ft Threshold 0 ft Heading 178
Pista 35L Longitud 9843 ft Anchura 148 ft
Elevación 102 ft Threshold 0 ft Heading 358
Frecuencias del aeropuerto
Tipo APP Nombre YESILKOY A Frecuencia 120.5 MHZ
Tipo ATIS Nombre ATIS Frecuencia 128.2 MHZ
Tipo CLD Nombre YESILKOY D Frecuencia 121.7 MHZ
Tipo GND Nombre YESILKOY G Frecuencia 121.8 MHZ
Tipo RMP Nombre YESILKOY R Frecuencia 121.9 MHZ
Tipo TWR Nombre YESILKOY T Frecuencia 118.1 MHZ
Radio-ayudas del aeropuerto
Tipo VORTAC Nombre Istanbul Frecuencia 112500 KHZ
Información meteorología y NOTAM del aeropuerto
ADDS - METARS form results

(0006 UTC 24 October 2019)
Data provider http://aviationweather.gov/metar/data/
 
METAR text: LTBA 232350Z 01004KT 9999 SCT030 16/13 Q1021 NOSIG RMK RWY17L 02004KT 350V050 RWY05 01005KT RWY23 03006KT
Conditions at: LTBA (ISTANBUL/ATATURK, TR) observed 2350 UTC 23 October 2019
Temperature: 16.0°C (61°F)
Dewpoint: 13.0°C (55°F) [RH = 82%]
Pressure (altimeter): 30.15 inches Hg (1021.0 mb)
Winds: from the N (10 degrees) at 5 MPH (4 knots; 2.1 m/s)
Visibility: 6 or more miles (10+ km)
Ceiling: at least 12,000 feet AGL
Clouds: scattered clouds at 3000 feet AGL
Weather: no significant weather observed at this time

METAR text: LTBA 232320Z 02005KT 9999 SCT030 16/14 Q1021 NOSIG RMK RWY17L 03004KT RWY05 01006KT RWY23 03006KT
Conditions at: LTBA (ISTANBUL/ATATURK, TR) observed 2320 UTC 23 October 2019
Temperature: 16.0°C (61°F)
Dewpoint: 14.0°C (57°F) [RH = 88%]
Pressure (altimeter): 30.15 inches Hg (1021.0 mb)
Winds: from the NNE (20 degrees) at 6 MPH (5 knots; 2.6 m/s)
Visibility: 6 or more miles (10+ km)
Ceiling: at least 12,000 feet AGL
Clouds: scattered clouds at 3000 feet AGL
Weather: no significant weather observed at this time

Forecast for: LTBA (ISTANBUL/ATATURK, TR)
Text: TAF LTBA 232240Z 2400/2506 02009KT CAVOK
Forecast period: 0000 to 1800 UTC 24 October 2019
Forecast type: FROM: standard forecast or significant change
Winds: from the NNE (20 degrees) at 10 MPH (9 knots; 4.6 m/s)
Visibility: 6 or more miles 10+ km)
Ceiling: unknown
Clouds: missing
Weather: NSW  (no significant weather)
Text: BECMG 2418/2421 SCT030
Forecast period: 1800 UTC 24 October 2019 to 0600 UTC 25 October 2019
Forecast type: BECOMING: Conditions expected to become as follows by 2100 UTC 24 October 2019
Winds: from the NNE (20 degrees) at 10 MPH (9 knots; 4.6 m/s)
Visibility: 6 or more miles 10+ km)
Ceiling: at least 12,000 feet AGL
Clouds: scattered clouds at 3000 feet AGL
Weather: NSW  (no significant weather)